sensor_id;sensor_type;location;lat;lon;timestamp;temperature;humidity
17348;DHT22;8791;50.876;4.342;2022-09-17T00:02:10;11.50;99.90
17348;DHT22;8791;50.876;4.342;2022-09-17T00:04:38;11.50;99.90
17348;DHT22;8791;50.876;4.342;2022-09-17T00:07:04;11.70;99.90
17348;DHT22;8791;50.876;4.342;2022-09-17T00:09:31;11.70;99.90
17348;DHT22;8791;50.876;4.342;2022-09-17T00:11:58;11.80;99.90
17348;DHT22;8791;50.876;4.342;2022-09-17T00:14:25;11.90;99.90
17348;DHT22;8791;50.876;4.342;2022-09-17T00:16:53;11.80;99.90
17348;DHT22;8791;50.876;4.342;2022-09-17T00:19:21;11.70;99.90
17348;DHT22;8791;50.876;4.342;2022-09-17T00:21:49;11.60;99.90
17348;DHT22;8791;50.876;4.342;2022-09-17T00:24:17;11.70;99.90
17348;DHT22;8791;50.876;4.342;2022-09-17T00:26:45;11.80;99.90
17348;DHT22;8791;50.876;4.342;2022-09-17T00:29:12;11.80;99.90
17348;DHT22;8791;50.876;4.342;2022-09-17T00:31:39;11.80;99.90
17348;DHT22;8791;50.876;4.342;2022-09-17T00:34:07;11.80;99.90
17348;DHT22;8791;50.876;4.342;2022-09-17T00:36:35;11.70;99.90
17348;DHT22;8791;50.876;4.342;2022-09-17T00:39:03;11.90;99.90
17348;DHT22;8791;50.876;4.342;2022-09-17T00:41:31;11.90;99.90
17348;DHT22;8791;50.876;4.342;2022-09-17T00:44:00;11.80;99.90
17348;DHT22;8791;50.876;4.342;2022-09-17T00:46:32;11.80;99.90
17348;DHT22;8791;50.876;4.342;2022-09-17T00:49:02;11.80;99.90
17348;DHT22;8791;50.876;4.342;2022-09-17T00:51:33;11.70;99.90
17348;DHT22;8791;50.876;4.342;2022-09-17T00:54:03;11.70;99.90
17348;DHT22;8791;50.876;4.342;2022-09-17T00:56:34;11.60;99.90
17348;DHT22;8791;50.876;4.342;2022-09-17T00:59:01;11.60;99.90
17348;DHT22;8791;50.876;4.342;2022-09-17T01:01:28;11.50;99.90
17348;DHT22;8791;50.876;4.342;2022-09-17T01:03:55;11.50;99.90
17348;DHT22;8791;50.876;4.342;2022-09-17T01:06:30;11.60;99.90
17348;DHT22;8791;50.876;4.342;2022-09-17T01:09:16;11.60;99.90
17348;DHT22;8791;50.876;4.342;2022-09-17T01:12:12;11.70;99.90
17348;DHT22;8791;50.876;4.342;2022-09-17T01:14:54;11.70;99.90
17348;DHT22;8791;50.876;4.342;2022-09-17T01:17:30;11.80;99.90
17348;DHT22;8791;50.876;4.342;2022-09-17T01:23:34;11.80;99.90
17348;DHT22;8791;50.876;4.342;2022-09-17T01:26:21;11.80;99.90
17348;DHT22;8791;50.876;4.342;2022-09-17T01:28:53;11.90;99.90
17348;DHT22;8791;50.876;4.342;2022-09-17T01:31:32;11.90;99.90
17348;DHT22;8791;50.876;4.342;2022-09-17T01:34:12;11.90;99.90
17348;DHT22;8791;50.876;4.342;2022-09-17T01:36:49;12.00;99.90
17348;DHT22;8791;50.876;4.342;2022-09-17T01:39:29;12.00;99.90
17348;DHT22;8791;50.876;4.342;2022-09-17T01:42:01;12.00;99.90
17348;DHT22;8791;50.876;4.342;2022-09-17T01:44:36;12.00;99.90
17348;DHT22;8791;50.876;4.342;2022-09-17T01:47:09;12.00;99.90
17348;DHT22;8791;50.876;4.342;2022-09-17T01:49:38;12.10;99.90
17348;DHT22;8791;50.876;4.342;2022-09-17T01:52:08;12.20;99.90
17348;DHT22;8791;50.876;4.342;2022-09-17T01:54:40;12.20;99.90
17348;DHT22;8791;50.876;4.342;2022-09-17T01:57:11;12.20;99.90
17348;DHT22;8791;50.876;4.342;2022-09-17T01:59:43;12.10;99.90
17348;DHT22;8791;50.876;4.342;2022-09-17T02:02:14;12.10;99.90
17348;DHT22;8791;50.876;4.342;2022-09-17T02:04:45;12.10;99.90
17348;DHT22;8791;50.876;4.342;2022-09-17T02:07:17;12.10;99.90
17348;DHT22;8791;50.876;4.342;2022-09-17T02:09:51;12.20;99.90
17348;DHT22;8791;50.876;4.342;2022-09-17T02:12:24;12.20;99.90
17348;DHT22;8791;50.876;4.342;2022-09-17T02:14:56;12.20;99.90
17348;DHT22;8791;50.876;4.342;2022-09-17T02:17:29;12.10;99.90
17348;DHT22;8791;50.876;4.342;2022-09-17T02:19:58;12.10;99.90
17348;DHT22;8791;50.876;4.342;2022-09-17T02:22:31;12.10;99.90
17348;DHT22;8791;50.876;4.342;2022-09-17T02:25:03;12.20;99.90
17348;DHT22;8791;50.876;4.342;2022-09-17T02:27:38;12.20;99.90
17348;DHT22;8791;50.876;4.342;2022-09-17T02:30:10;12.00;99.90
17348;DHT22;8791;50.876;4.342;2022-09-17T02:32:39;11.90;99.90
17348;DHT22;8791;50.876;4.342;2022-09-17T02:35:08;11.80;99.90
17348;DHT22;8791;50.876;4.342;2022-09-17T02:37:35;12.00;99.90
17348;DHT22;8791;50.876;4.342;2022-09-17T02:40:02;11.80;99.90
17348;DHT22;8791;50.876;4.342;2022-09-17T02:42:34;11.90;99.90
17348;DHT22;8791;50.876;4.342;2022-09-17T02:45:10;12.00;99.90
17348;DHT22;8791;50.876;4.342;2022-09-17T02:48:03;12.10;99.90
17348;DHT22;8791;50.876;4.342;2022-09-17T02:50:50;12.10;99.90
17348;DHT22;8791;50.876;4.342;2022-09-17T02:53:30;12.10;99.90
17348;DHT22;8791;50.876;4.342;2022-09-17T02:56:08;12.10;99.90
17348;DHT22;8791;50.876;4.342;2022-09-17T02:58:43;12.10;99.90
17348;DHT22;8791;50.876;4.342;2022-09-17T03:01:15;12.10;99.90
17348;DHT22;8791;50.876;4.342;2022-09-17T03:03:46;12.10;99.90
17348;DHT22;8791;50.876;4.342;2022-09-17T03:06:15;12.00;99.90
17348;DHT22;8791;50.876;4.342;2022-09-17T03:08:44;11.90;99.90
17348;DHT22;8791;50.876;4.342;2022-09-17T03:11:12;11.80;99.90
17348;DHT22;8791;50.876;4.342;2022-09-17T03:13:40;11.70;99.90
17348;DHT22;8791;50.876;4.342;2022-09-17T03:16:07;11.70;99.90
17348;DHT22;8791;50.876;4.342;2022-09-17T03:18:34;11.80;99.90
17348;DHT22;8791;50.876;4.342;2022-09-17T03:21:02;11.80;99.90
17348;DHT22;8791;50.876;4.342;2022-09-17T03:23:29;11.80;99.90
17348;DHT22;8791;50.876;4.342;2022-09-17T03:25:56;11.70;99.90
17348;DHT22;8791;50.876;4.342;2022-09-17T03:28:23;11.70;99.90
17348;DHT22;8791;50.876;4.342;2022-09-17T03:30:51;11.60;99.90
17348;DHT22;8791;50.876;4.342;2022-09-17T03:33:18;11.50;99.90
17348;DHT22;8791;50.876;4.342;2022-09-17T03:35:45;11.60;99.90
17348;DHT22;8791;50.876;4.342;2022-09-17T03:38:14;11.70;99.90
17348;DHT22;8791;50.876;4.342;2022-09-17T03:40:41;11.70;99.90
17348;DHT22;8791;50.876;4.342;2022-09-17T03:43:08;11.70;99.90
17348;DHT22;8791;50.876;4.342;2022-09-17T03:45:35;11.60;99.90
17348;DHT22;8791;50.876;4.342;2022-09-17T03:48:02;11.50;99.90
17348;DHT22;8791;50.876;4.342;2022-09-17T03:50:29;11.50;99.90
17348;DHT22;8791;50.876;4.342;2022-09-17T03:52:56;11.60;99.90
17348;DHT22;8791;50.876;4.342;2022-09-17T03:55:24;11.60;99.90
17348;DHT22;8791;50.876;4.342;2022-09-17T03:57:51;11.60;99.90
17348;DHT22;8791;50.876;4.342;2022-09-17T04:00:18;11.40;99.90
17348;DHT22;8791;50.876;4.342;2022-09-17T04:02:44;11.50;99.90
17348;DHT22;8791;50.876;4.342;2022-09-17T04:05:12;11.60;99.90
17348;DHT22;8791;50.876;4.342;2022-09-17T04:07:39;11.60;99.90
17348;DHT22;8791;50.876;4.342;2022-09-17T04:10:07;11.60;99.90
17348;DHT22;8791;50.876;4.342;2022-09-17T04:12:35;11.60;99.90
17348;DHT22;8791;50.876;4.342;2022-09-17T04:15:02;11.50;99.90
17348;DHT22;8791;50.876;4.342;2022-09-17T04:17:29;11.30;99.90
17348;DHT22;8791;50.876;4.342;2022-09-17T04:19:56;11.30;99.90
17348;DHT22;8791;50.876;4.342;2022-09-17T04:22:23;11.40;99.90
17348;DHT22;8791;50.876;4.342;2022-09-17T04:24:51;11.30;99.90
17348;DHT22;8791;50.876;4.342;2022-09-17T04:27:18;11.40;99.90
17348;DHT22;8791;50.876;4.342;2022-09-17T04:29:47;11.40;99.90
17348;DHT22;8791;50.876;4.342;2022-09-17T04:32:13;11.30;99.90
17348;DHT22;8791;50.876;4.342;2022-09-17T04:34:40;11.30;99.90
17348;DHT22;8791;50.876;4.342;2022-09-17T04:37:07;11.30;99.90
17348;DHT22;8791;50.876;4.342;2022-09-17T04:39:34;11.30;99.90
17348;DHT22;8791;50.876;4.342;2022-09-17T04:42:02;11.30;99.90
17348;DHT22;8791;50.876;4.342;2022-09-17T04:44:29;11.30;99.90
17348;DHT22;8791;50.876;4.342;2022-09-17T04:46:57;11.30;99.90
17348;DHT22;8791;50.876;4.342;2022-09-17T04:49:25;11.20;99.90
17348;DHT22;8791;50.876;4.342;2022-09-17T04:51:54;11.30;99.90
17348;DHT22;8791;50.876;4.342;2022-09-17T04:54:21;11.30;99.90
17348;DHT22;8791;50.876;4.342;2022-09-17T04:56:48;11.50;99.90
17348;DHT22;8791;50.876;4.342;2022-09-17T04:59:14;11.60;99.90
17348;DHT22;8791;50.876;4.342;2022-09-17T05:01:41;11.60;99.90
17348;DHT22;8791;50.876;4.342;2022-09-17T05:04:10;11.60;99.90
17348;DHT22;8791;50.876;4.342;2022-09-17T05:06:36;11.60;99.90
17348;DHT22;8791;50.876;4.342;2022-09-17T05:09:03;11.50;99.90
17348;DHT22;8791;50.876;4.342;2022-09-17T05:11:30;11.50;99.90
17348;DHT22;8791;50.876;4.342;2022-09-17T05:13:57;11.50;99.90
17348;DHT22;8791;50.876;4.342;2022-09-17T05:16:24;11.50;99.90
17348;DHT22;8791;50.876;4.342;2022-09-17T05:18:51;11.30;99.90
17348;DHT22;8791;50.876;4.342;2022-09-17T05:21:19;11.10;99.90
17348;DHT22;8791;50.876;4.342;2022-09-17T05:23:46;11.10;99.90
17348;DHT22;8791;50.876;4.342;2022-09-17T05:26:13;11.20;99.90
17348;DHT22;8791;50.876;4.342;2022-09-17T05:28:40;11.20;99.90
17348;DHT22;8791;50.876;4.342;2022-09-17T05:31:07;11.30;99.90
17348;DHT22;8791;50.876;4.342;2022-09-17T05:33:34;11.50;99.90
17348;DHT22;8791;50.876;4.342;2022-09-17T05:36:01;11.50;99.90
17348;DHT22;8791;50.876;4.342;2022-09-17T05:38:29;11.60;99.90
17348;DHT22;8791;50.876;4.342;2022-09-17T05:40:56;11.50;99.90
17348;DHT22;8791;50.876;4.342;2022-09-17T05:43:23;11.30;99.90
17348;DHT22;8791;50.876;4.342;2022-09-17T05:45:49;11.40;99.90
17348;DHT22;8791;50.876;4.342;2022-09-17T05:48:18;11.50;99.90
17348;DHT22;8791;50.876;4.342;2022-09-17T05:50:45;11.60;99.90
17348;DHT22;8791;50.876;4.342;2022-09-17T05:53:13;11.60;99.90
17348;DHT22;8791;50.876;4.342;2022-09-17T05:55:41;11.60;99.90
17348;DHT22;8791;50.876;4.342;2022-09-17T05:58:09;11.60;99.90
17348;DHT22;8791;50.876;4.342;2022-09-17T06:00:36;11.60;99.90
17348;DHT22;8791;50.876;4.342;2022-09-17T06:03:03;11.60;99.90
17348;DHT22;8791;50.876;4.342;2022-09-17T06:05:30;11.70;99.90
17348;DHT22;8791;50.876;4.342;2022-09-17T06:07:57;11.70;99.90
17348;DHT22;8791;50.876;4.342;2022-09-17T06:10:23;11.60;99.90
17348;DHT22;8791;50.876;4.342;2022-09-17T06:12:55;11.70;99.90
17348;DHT22;8791;50.876;4.342;2022-09-17T06:15:22;11.80;99.90
17348;DHT22;8791;50.876;4.342;2022-09-17T06:17:49;11.80;99.90
17348;DHT22;8791;50.876;4.342;2022-09-17T06:20:20;11.70;99.90
17348;DHT22;8791;50.876;4.342;2022-09-17T06:22:54;11.70;99.90
17348;DHT22;8791;50.876;4.342;2022-09-17T06:25:22;11.80;99.90
17348;DHT22;8791;50.876;4.342;2022-09-17T06:27:49;12.00;99.90
17348;DHT22;8791;50.876;4.342;2022-09-17T06:30:17;12.10;99.90
17348;DHT22;8791;50.876;4.342;2022-09-17T06:32:44;12.10;99.90
17348;DHT22;8791;50.876;4.342;2022-09-17T06:35:10;12.00;99.90
17348;DHT22;8791;50.876;4.342;2022-09-17T06:37:37;12.00;99.90
17348;DHT22;8791;50.876;4.342;2022-09-17T06:40:06;12.10;99.90
17348;DHT22;8791;50.876;4.342;2022-09-17T06:42:33;12.10;99.90
17348;DHT22;8791;50.876;4.342;2022-09-17T06:45:00;12.10;99.90
17348;DHT22;8791;50.876;4.342;2022-09-17T06:47:28;12.20;99.90
17348;DHT22;8791;50.876;4.342;2022-09-17T06:49:55;12.20;99.90
17348;DHT22;8791;50.876;4.342;2022-09-17T06:52:24;12.00;99.90
17348;DHT22;8791;50.876;4.342;2022-09-17T06:54:51;12.20;99.90
17348;DHT22;8791;50.876;4.342;2022-09-17T06:57:18;12.30;99.90
17348;DHT22;8791;50.876;4.342;2022-09-17T06:59:44;12.40;99.90
17348;DHT22;8791;50.876;4.342;2022-09-17T07:02:11;12.60;99.90
17348;DHT22;8791;50.876;4.342;2022-09-17T07:04:39;12.60;99.90
17348;DHT22;8791;50.876;4.342;2022-09-17T07:07:06;12.70;99.90
17348;DHT22;8791;50.876;4.342;2022-09-17T07:09:34;12.70;99.90
17348;DHT22;8791;50.876;4.342;2022-09-17T07:12:01;12.60;99.90
17348;DHT22;8791;50.876;4.342;2022-09-17T07:14:32;12.80;99.90
17348;DHT22;8791;50.876;4.342;2022-09-17T07:16:58;12.70;99.90
17348;DHT22;8791;50.876;4.342;2022-09-17T07:19:25;12.80;99.90
17348;DHT22;8791;50.876;4.342;2022-09-17T07:21:53;12.70;99.90
17348;DHT22;8791;50.876;4.342;2022-09-17T07:24:20;12.70;99.90
17348;DHT22;8791;50.876;4.342;2022-09-17T07:26:48;12.70;99.90
17348;DHT22;8791;50.876;4.342;2022-09-17T07:29:16;12.60;99.90
17348;DHT22;8791;50.876;4.342;2022-09-17T07:31:43;12.50;99.90
17348;DHT22;8791;50.876;4.342;2022-09-17T07:34:09;12.50;99.90
17348;DHT22;8791;50.876;4.342;2022-09-17T07:36:36;12.60;99.90
17348;DHT22;8791;50.876;4.342;2022-09-17T07:39:05;12.60;99.90
17348;DHT22;8791;50.876;4.342;2022-09-17T07:41:31;12.70;99.90
17348;DHT22;8791;50.876;4.342;2022-09-17T07:43:58;12.50;99.90
17348;DHT22;8791;50.876;4.342;2022-09-17T07:46:27;12.70;99.90
17348;DHT22;8791;50.876;4.342;2022-09-17T07:48:54;12.70;99.90
17348;DHT22;8791;50.876;4.342;2022-09-17T07:51:22;12.80;99.90
17348;DHT22;8791;50.876;4.342;2022-09-17T07:53:50;12.80;99.90
17348;DHT22;8791;50.876;4.342;2022-09-17T07:56:18;12.80;99.90
17348;DHT22;8791;50.876;4.342;2022-09-17T07:58:45;12.90;99.90
17348;DHT22;8791;50.876;4.342;2022-09-17T08:01:13;13.00;99.90
17348;DHT22;8791;50.876;4.342;2022-09-17T08:03:41;13.20;99.90
17348;DHT22;8791;50.876;4.342;2022-09-17T08:06:10;13.40;99.90
17348;DHT22;8791;50.876;4.342;2022-09-17T08:08:38;13.60;99.90
17348;DHT22;8791;50.876;4.342;2022-09-17T08:11:07;13.70;99.90
17348;DHT22;8791;50.876;4.342;2022-09-17T08:13:35;13.50;99.90
17348;DHT22;8791;50.876;4.342;2022-09-17T08:16:04;13.50;99.90
17348;DHT22;8791;50.876;4.342;2022-09-17T08:18:31;13.50;99.90
17348;DHT22;8791;50.876;4.342;2022-09-17T08:20:59;13.50;99.90
17348;DHT22;8791;50.876;4.342;2022-09-17T08:23:27;13.60;99.90
17348;DHT22;8791;50.876;4.342;2022-09-17T08:25:55;13.70;99.90
17348;DHT22;8791;50.876;4.342;2022-09-17T08:28:22;13.60;99.90
17348;DHT22;8791;50.876;4.342;2022-09-17T08:30:51;13.60;99.90
17348;DHT22;8791;50.876;4.342;2022-09-17T08:33:19;13.60;99.90
17348;DHT22;8791;50.876;4.342;2022-09-17T08:35:50;13.70;99.90
17348;DHT22;8791;50.876;4.342;2022-09-17T08:38:17;13.90;99.90
17348;DHT22;8791;50.876;4.342;2022-09-17T08:40:53;14.30;99.90
17348;DHT22;8791;50.876;4.342;2022-09-17T08:43:22;14.50;99.90
17348;DHT22;8791;50.876;4.342;2022-09-17T08:45:53;14.70;99.90
17348;DHT22;8791;50.876;4.342;2022-09-17T08:48:21;14.60;99.90
17348;DHT22;8791;50.876;4.342;2022-09-17T08:50:48;14.60;99.90
17348;DHT22;8791;50.876;4.342;2022-09-17T08:53:25;14.50;99.90
17348;DHT22;8791;50.876;4.342;2022-09-17T08:55:59;14.30;99.90
17348;DHT22;8791;50.876;4.342;2022-09-17T08:58:41;14.30;99.90
17348;DHT22;8791;50.876;4.342;2022-09-17T09:01:33;14.40;99.90
17348;DHT22;8791;50.876;4.342;2022-09-17T09:07:01;14.70;99.90
17348;DHT22;8791;50.876;4.342;2022-09-17T09:09:34;14.70;99.90
17348;DHT22;8791;50.876;4.342;2022-09-17T09:12:05;14.70;99.90
17348;DHT22;8791;50.876;4.342;2022-09-17T09:14:37;14.50;99.90
17348;DHT22;8791;50.876;4.342;2022-09-17T09:17:08;14.40;99.90
17348;DHT22;8791;50.876;4.342;2022-09-17T09:19:41;14.40;99.90
17348;DHT22;8791;50.876;4.342;2022-09-17T09:22:18;14.50;99.90
17348;DHT22;8791;50.876;4.342;2022-09-17T09:24:59;14.50;99.90
17348;DHT22;8791;50.876;4.342;2022-09-17T09:27:30;14.40;99.90
17348;DHT22;8791;50.876;4.342;2022-09-17T09:30:02;14.30;99.90
17348;DHT22;8791;50.876;4.342;2022-09-17T09:32:48;14.20;99.90
17348;DHT22;8791;50.876;4.342;2022-09-17T09:35:18;13.90;99.90
17348;DHT22;8791;50.876;4.342;2022-09-17T09:37:53;13.70;99.90
17348;DHT22;8791;50.876;4.342;2022-09-17T09:40:35;13.50;99.90
17348;DHT22;8791;50.876;4.342;2022-09-17T09:43:11;13.40;99.90
17348;DHT22;8791;50.876;4.342;2022-09-17T09:48:55;13.30;99.90
17348;DHT22;8791;50.876;4.342;2022-09-17T09:51:31;13.40;99.90
17348;DHT22;8791;50.876;4.342;2022-09-17T09:54:12;13.60;99.90
17348;DHT22;8791;50.876;4.342;2022-09-17T09:56:54;13.80;99.90
17348;DHT22;8791;50.876;4.342;2022-09-17T09:59:21;14.00;99.90
17348;DHT22;8791;50.876;4.342;2022-09-17T10:01:49;14.10;99.90
17348;DHT22;8791;50.876;4.342;2022-09-17T10:04:20;14.10;99.90
17348;DHT22;8791;50.876;4.342;2022-09-17T10:06:49;14.20;99.90
17348;DHT22;8791;50.876;4.342;2022-09-17T10:09:17;14.10;99.90
17348;DHT22;8791;50.876;4.342;2022-09-17T10:11:59;14.20;99.90
17348;DHT22;8791;50.876;4.342;2022-09-17T10:14:28;14.60;99.90
17348;DHT22;8791;50.876;4.342;2022-09-17T10:17:16;14.80;99.90
17348;DHT22;8791;50.876;4.342;2022-09-17T10:19:46;14.70;99.90
17348;DHT22;8791;50.876;4.342;2022-09-17T10:22:24;14.50;99.90
17348;DHT22;8791;50.876;4.342;2022-09-17T10:24:53;14.50;99.90
17348;DHT22;8791;50.876;4.342;2022-09-17T10:27:23;14.40;99.90
17348;DHT22;8791;50.876;4.342;2022-09-17T10:29:53;14.40;99.90
17348;DHT22;8791;50.876;4.342;2022-09-17T10:32:23;14.30;99.90
17348;DHT22;8791;50.876;4.342;2022-09-17T10:34:59;14.10;99.90
17348;DHT22;8791;50.876;4.342;2022-09-17T10:37:34;14.10;99.90
17348;DHT22;8791;50.876;4.342;2022-09-17T10:40:25;14.10;99.90
17348;DHT22;8791;50.876;4.342;2022-09-17T10:43:17;14.20;99.90
17348;DHT22;8791;50.876;4.342;2022-09-17T10:45:53;14.40;99.90
17348;DHT22;8791;50.876;4.342;2022-09-17T10:48:21;14.60;99.90
17348;DHT22;8791;50.876;4.342;2022-09-17T10:50:52;14.70;99.90
17348;DHT22;8791;50.876;4.342;2022-09-17T10:53:20;14.70;99.90
17348;DHT22;8791;50.876;4.342;2022-09-17T10:55:50;14.80;99.90
17348;DHT22;8791;50.876;4.342;2022-09-17T10:58:35;14.70;99.90
17348;DHT22;8791;50.876;4.342;2022-09-17T11:01:09;14.70;99.90
17348;DHT22;8791;50.876;4.342;2022-09-17T11:06:59;14.60;99.90
17348;DHT22;8791;50.876;4.342;2022-09-17T11:09:38;14.60;99.90
17348;DHT22;8791;50.876;4.342;2022-09-17T11:12:19;14.50;99.90
17348;DHT22;8791;50.876;4.342;2022-09-17T11:14:51;14.40;99.90
17348;DHT22;8791;50.876;4.342;2022-09-17T11:17:31;14.60;99.90
17348;DHT22;8791;50.876;4.342;2022-09-17T11:20:06;14.70;99.90
17348;DHT22;8791;50.876;4.342;2022-09-17T11:22:45;14.70;99.90
17348;DHT22;8791;50.876;4.342;2022-09-17T11:25:26;14.60;99.90
17348;DHT22;8791;50.876;4.342;2022-09-17T11:28:03;14.30;99.90
17348;DHT22;8791;50.876;4.342;2022-09-17T11:30:40;14.20;99.90
17348;DHT22;8791;50.876;4.342;2022-09-17T11:33:22;14.30;99.90
17348;DHT22;8791;50.876;4.342;2022-09-17T11:35:54;14.30;99.90
17348;DHT22;8791;50.876;4.342;2022-09-17T11:38:39;14.40;99.90
17348;DHT22;8791;50.876;4.342;2022-09-17T11:41:11;14.30;99.90
17348;DHT22;8791;50.876;4.342;2022-09-17T11:43:43;14.50;99.90
17348;DHT22;8791;50.876;4.342;2022-09-17T11:46:16;14.40;99.90
17348;DHT22;8791;50.876;4.342;2022-09-17T11:48:46;14.30;99.90
17348;DHT22;8791;50.876;4.342;2022-09-17T11:51:25;14.30;99.90
17348;DHT22;8791;50.876;4.342;2022-09-17T11:53:59;14.50;99.90
17348;DHT22;8791;50.876;4.342;2022-09-17T11:56:32;14.60;99.90
17348;DHT22;8791;50.876;4.342;2022-09-17T11:59:03;14.50;99.90
17348;DHT22;8791;50.876;4.342;2022-09-17T12:01:37;14.50;99.90
17348;DHT22;8791;50.876;4.342;2022-09-17T12:04:21;14.80;99.90
17348;DHT22;8791;50.876;4.342;2022-09-17T12:06:56;14.80;99.90
17348;DHT22;8791;50.876;4.342;2022-09-17T12:09:31;14.80;99.90
17348;DHT22;8791;50.876;4.342;2022-09-17T12:12:01;14.80;99.90
17348;DHT22;8791;50.876;4.342;2022-09-17T12:14:38;14.90;99.90
17348;DHT22;8791;50.876;4.342;2022-09-17T12:17:11;15.10;99.90
17348;DHT22;8791;50.876;4.342;2022-09-17T12:19:43;15.20;99.90
17348;DHT22;8791;50.876;4.342;2022-09-17T12:22:14;15.30;99.90
17348;DHT22;8791;50.876;4.342;2022-09-17T12:24:44;15.20;99.90
17348;DHT22;8791;50.876;4.342;2022-09-17T12:27:17;15.30;99.90
17348;DHT22;8791;50.876;4.342;2022-09-17T12:30:08;15.30;99.90
17348;DHT22;8791;50.876;4.342;2022-09-17T12:32:56;15.40;99.90
17348;DHT22;8791;50.876;4.342;2022-09-17T12:35:40;15.50;99.90
17348;DHT22;8791;50.876;4.342;2022-09-17T12:38:21;15.60;99.90
17348;DHT22;8791;50.876;4.342;2022-09-17T12:40:55;15.60;99.90
17348;DHT22;8791;50.876;4.342;2022-09-17T12:43:39;15.60;99.90
17348;DHT22;8791;50.876;4.342;2022-09-17T12:46:26;15.60;99.90
17348;DHT22;8791;50.876;4.342;2022-09-17T12:49:09;15.60;99.90
17348;DHT22;8791;50.876;4.342;2022-09-17T12:51:53;15.60;99.90
17348;DHT22;8791;50.876;4.342;2022-09-17T12:54:43;15.30;99.90
17348;DHT22;8791;50.876;4.342;2022-09-17T12:57:21;14.70;99.90
17348;DHT22;8791;50.876;4.342;2022-09-17T12:59:52;14.20;99.90
17348;DHT22;8791;50.876;4.342;2022-09-17T13:02:27;14.00;99.90
17348;DHT22;8791;50.876;4.342;2022-09-17T13:05:20;13.60;99.90
17348;DHT22;8791;50.876;4.342;2022-09-17T13:08:14;13.60;99.90
17348;DHT22;8791;50.876;4.342;2022-09-17T13:11:09;13.10;99.90
17348;DHT22;8791;50.876;4.342;2022-09-17T13:13:47;12.80;99.90
17348;DHT22;8791;50.876;4.342;2022-09-17T13:16:18;12.40;99.90
17348;DHT22;8791;50.876;4.342;2022-09-17T13:18:53;12.30;99.90
17348;DHT22;8791;50.876;4.342;2022-09-17T13:21:24;12.20;99.90
17348;DHT22;8791;50.876;4.342;2022-09-17T13:23:55;12.30;99.90
17348;DHT22;8791;50.876;4.342;2022-09-17T13:26:33;12.50;99.90
17348;DHT22;8791;50.876;4.342;2022-09-17T13:29:02;12.80;99.90
17348;DHT22;8791;50.876;4.342;2022-09-17T13:31:46;13.20;99.90
17348;DHT22;8791;50.876;4.342;2022-09-17T13:34:29;13.40;99.90
17348;DHT22;8791;50.876;4.342;2022-09-17T13:36:57;13.50;99.90
17348;DHT22;8791;50.876;4.342;2022-09-17T13:39:35;13.60;99.90
17348;DHT22;8791;50.876;4.342;2022-09-17T13:42:05;13.80;99.90
17348;DHT22;8791;50.876;4.342;2022-09-17T13:44:39;13.80;99.90
17348;DHT22;8791;50.876;4.342;2022-09-17T13:47:14;14.10;99.90
17348;DHT22;8791;50.876;4.342;2022-09-17T13:49:44;14.20;99.90
17348;DHT22;8791;50.876;4.342;2022-09-17T13:52:14;14.40;99.90
17348;DHT22;8791;50.876;4.342;2022-09-17T13:54:54;14.50;99.90
17348;DHT22;8791;50.876;4.342;2022-09-17T13:57:22;14.70;99.90
17348;DHT22;8791;50.876;4.342;2022-09-17T13:59:56;14.80;99.90
17348;DHT22;8791;50.876;4.342;2022-09-17T14:02:32;14.90;99.90
17348;DHT22;8791;50.876;4.342;2022-09-17T14:08:27;15.00;99.90
17348;DHT22;8791;50.876;4.342;2022-09-17T14:10:57;14.80;99.90
17348;DHT22;8791;50.876;4.342;2022-09-17T14:13:39;14.80;99.90
17348;DHT22;8791;50.876;4.342;2022-09-17T14:16:30;14.90;99.90
17348;DHT22;8791;50.876;4.342;2022-09-17T14:19:02;15.00;99.90
17348;DHT22;8791;50.876;4.342;2022-09-17T14:21:31;14.90;99.90
17348;DHT22;8791;50.876;4.342;2022-09-17T14:24:00;15.00;99.90
17348;DHT22;8791;50.876;4.342;2022-09-17T14:26:48;15.10;99.90
17348;DHT22;8791;50.876;4.342;2022-09-17T14:29:32;15.20;99.90
17348;DHT22;8791;50.876;4.342;2022-09-17T14:32:07;15.20;99.90
17348;DHT22;8791;50.876;4.342;2022-09-17T14:34:38;14.70;99.90
17348;DHT22;8791;50.876;4.342;2022-09-17T14:37:08;14.30;99.90
17348;DHT22;8791;50.876;4.342;2022-09-17T14:39:38;13.90;99.90
17348;DHT22;8791;50.876;4.342;2022-09-17T14:42:13;13.60;99.90
17348;DHT22;8791;50.876;4.342;2022-09-17T14:44:48;13.30;99.90
17348;DHT22;8791;50.876;4.342;2022-09-17T14:47:19;13.10;99.90
17348;DHT22;8791;50.876;4.342;2022-09-17T14:49:46;12.90;99.90
17348;DHT22;8791;50.876;4.342;2022-09-17T14:52:23;12.80;99.90
17348;DHT22;8791;50.876;4.342;2022-09-17T14:55:18;12.90;99.90
17348;DHT22;8791;50.876;4.342;2022-09-17T14:57:48;13.10;99.90
17348;DHT22;8791;50.876;4.342;2022-09-17T15:00:18;13.20;99.90
17348;DHT22;8791;50.876;4.342;2022-09-17T15:02:51;13.30;99.90
17348;DHT22;8791;50.876;4.342;2022-09-17T15:05:28;13.40;99.90
17348;DHT22;8791;50.876;4.342;2022-09-17T15:08:12;13.50;99.90
17348;DHT22;8791;50.876;4.342;2022-09-17T15:10:46;13.60;99.90
17348;DHT22;8791;50.876;4.342;2022-09-17T15:13:16;13.70;99.90
17348;DHT22;8791;50.876;4.342;2022-09-17T15:15:55;13.90;99.90
17348;DHT22;8791;50.876;4.342;2022-09-17T15:18:31;13.80;99.90
17348;DHT22;8791;50.876;4.342;2022-09-17T15:21:00;13.90;99.90
17348;DHT22;8791;50.876;4.342;2022-09-17T15:23:29;14.00;99.90
17348;DHT22;8791;50.876;4.342;2022-09-17T15:25:58;14.10;99.90
17348;DHT22;8791;50.876;4.342;2022-09-17T15:28:29;14.00;99.90
17348;DHT22;8791;50.876;4.342;2022-09-17T15:30:57;14.00;99.90
17348;DHT22;8791;50.876;4.342;2022-09-17T15:33:25;14.00;99.90
17348;DHT22;8791;50.876;4.342;2022-09-17T15:36:01;14.00;99.90
17348;DHT22;8791;50.876;4.342;2022-09-17T15:38:35;14.00;99.90
17348;DHT22;8791;50.876;4.342;2022-09-17T15:41:29;14.10;99.90
17348;DHT22;8791;50.876;4.342;2022-09-17T15:44:21;14.10;99.90
17348;DHT22;8791;50.876;4.342;2022-09-17T15:46:49;14.10;99.90
17348;DHT22;8791;50.876;4.342;2022-09-17T15:49:31;14.10;99.90
17348;DHT22;8791;50.876;4.342;2022-09-17T15:52:20;14.20;99.90
17348;DHT22;8791;50.876;4.342;2022-09-17T15:54:50;14.20;99.90
17348;DHT22;8791;50.876;4.342;2022-09-17T15:57:17;14.20;99.90
17348;DHT22;8791;50.876;4.342;2022-09-17T15:59:47;14.20;99.90
17348;DHT22;8791;50.876;4.342;2022-09-17T16:02:24;14.10;99.90
17348;DHT22;8791;50.876;4.342;2022-09-17T16:08:16;13.80;99.90
17348;DHT22;8791;50.876;4.342;2022-09-17T16:10:43;13.90;99.90
17348;DHT22;8791;50.876;4.342;2022-09-17T16:13:10;13.90;99.90
17348;DHT22;8791;50.876;4.342;2022-09-17T16:15:38;13.80;99.90
17348;DHT22;8791;50.876;4.342;2022-09-17T16:18:05;13.70;99.90
17348;DHT22;8791;50.876;4.342;2022-09-17T16:20:33;13.80;99.90
17348;DHT22;8791;50.876;4.342;2022-09-17T16:23:00;14.00;99.90
17348;DHT22;8791;50.876;4.342;2022-09-17T16:25:27;14.20;99.90
17348;DHT22;8791;50.876;4.342;2022-09-17T16:27:56;14.40;99.90
17348;DHT22;8791;50.876;4.342;2022-09-17T16:30:24;14.30;99.90
17348;DHT22;8791;50.876;4.342;2022-09-17T16:32:51;14.20;99.90
17348;DHT22;8791;50.876;4.342;2022-09-17T16:35:25;14.20;99.90